Lone Star Executive Airport
KCXO : now visible

Airfield :











YOU CAN JOIN US ON...

 
LOGIN :

Register | Disclaimer

   EN    FR    IT 

 









Legend :    VFR   Marginal VFR   IFR   Intensive IFR   Very Intensive IFR
Visi :
Ceiling :
>= 8 km
>= 3000ft
5 to 8 km
1000 to 3000 ft
1500m to 5 km
500 to 1000 ft
800 to 1500m
200 to 500 ft
< 800m
< 200 ft
Symbols :   Thunderstorms  Fog  Heavy snow  Heavy precipitations  Wind > 20 kt






- Airport Elevation : 245 ft


KCXO - Lone Star Executive

CURRENT METAR :
  • 230014Z 00000KT 10SM OVC016 18/16 A2997 RMK AO2 T01830156

EXPIRED METARs :
  • 222353Z 00000KT 10SM OVC014 18/16 A2996 RMK AO2 PRESRR SLP143 T01830156 10194 20172 53012
  • 222329Z 07004KT 10SM BKN014 18/16 A2994 RMK AO2 T01830156
  • 222253Z 08005KT 10SM FEW120 19/16 A2994 RMK AO2 SLP137 T01940161
  • 222220Z 10005KT 10SM FEW013 SCT024 OVC110 19/16 A2994 RMK AO2 T01890156
  • 222153Z 07006KT 10SM SCT012 BKN017 OVC022 19/16 A2994 RMK AO2 SLP136 T01940161

TAF KCXO
Valid from the 23 at 00:00 until the 24 at 00:00 UTC


222331Z 2300/2324 VRB05KT P6SM FEW013 SCT024 BKN110
FM230300 01004KT 5SM BR SCT005 OVC010
FM230600 01005KT 2SM BR OVC005
FM230800 02005KT 3/4SM BR OVC003
FM231600 09006KT 5SM BR OVC007
FM232100 11006KT 6SM -DZ BR VCSH SCT007 OVC015
KZHU FIR / North America



MET'MAP, your aeronautical weather chart ! - Copyright ORBIFLY December 2007 - Disclaimer

ORBIFLY MET'MAP TEAM :

Programming & Development : Alexandra Zaïnal
Concept & original design : Baudouin d'Aumeries
Assistance for programming : Marc-Olivier Méhu
Technical & hardware support : Manuel Goepfert

Contact : metmap@orbifly.com




SOURCES & CREDITS :

   NOAA       Earth
Advisory